Airfield :
LOGIN :

Register | Disclaimer

   EN    FR    IT 

 










Legend :    VFR   Marginal VFR   IFR   Intensive IFR   Very Intensive IFR
Visi :
Ceiling :
>= 8 km
>= 3000ft
5 to 8 km
1000 to 3000 ft
1500m to 5 km
500 to 1000 ft
800 to 1500m
200 to 500 ft
< 800m
< 200 ft
Symbols :   Thunderstorms  Fog  Heavy snow  Heavy precipitations  Wind > 20 kt
SIGMETs :     Misc.  Thunderstorms  Icing  Turbulence  Mountain Waves  Volcanic Ashes







- Airport Elevation : 26 ft
- IATA code : GLA
- Download approach charts


EGPF - Glasgow

CURRENT METAR :
  • 221720Z AUTO 21005KT 9999 BKN019 01/M01 Q0995

EXPIRED METARs :
  • 221650Z AUTO 23004KT 9999 BKN018 M00/M01 Q0995
  • 221620Z AUTO 26004KT 9999 NCD 01/M01 Q0995
  • 221550Z AUTO 25007KT 9999 NCD 02/M00 Q0995
  • 221520Z AUTO 23004KT 9999 NCD 02/M00 Q0995
  • 221450Z AUTO 25004KT 9999 FEW023 02/M00 Q0995

TAF TAF EGPF
Valid from the 22 at 18:00 until the 23 at 18:00 UTC


221703Z 2218/2318 VRB04KT 9999 FEW010 BKN020
PROB40
TEMPO 2218/2220 3000 SHSNRA BKN012CB
PROB30
TEMPO 2220/2304 6000 -SHRASN
ATIS : +44 141 887 7449
No reported NOTAMs for that airfield.
1 SIGMET reported for the Scottish FIR (EGPX) :
 
Severe turbulence
EGPX SIGMET 03 VALID 221430/221830 EGRR
EGPX SCOTTISH FIR SEV TURB FCST WI N5500 W00530 - N5355 W00530 - N5510 W00709 - N5520 W00655 - N5525 W00720 - N5708 W01000 - N6002 W01000 - N5500 W00400 - N5500 W00530 FL160/400 MOV E 15KT NC=



MET'MAP, your aeronautical weather chart ! - Copyright ORBIFLY December 2007 - Disclaimer

ORBIFLY MET'MAP TEAM :

Programming & Development : Alexandra Zaïnal
Concept & Development : Baudouin d'Aumeries
Co-Development & Prog : Marc-Olivier Méhu
Technical & hardware support : Manuel Goepfert

Contact : metmap@orbifly.com




SOURCES & CREDITS :

   NOAA